Αναφορές METAR από Ελληνικά Αεροδρόμια

Σε αυτή τη σελίδα, μπορείτε να παρακολουθείτε τις αναφορές METAR που προέρχονται από τα κυριότερα αεροδρόμια της Ελλάδας. Το περιεχόμενο αποκωδικοποιείται, οπτικοποιείται και γίνεται κατανοητό από τον καθένα με τη χρήση του όμορφου δίγλωσσου γραφικού περιβάλλοντος του meteothes.gr!

Η αρχική κωδικοποιημένη αναφορά, συμπεριλαμβάνεται επίσης στο κάτω μέρος. Σε όποια καθεστερεί η ενημέρωση, το προειδοποιητικό μήνυμα "Μη ενημερωμένο METAR!" εμφανίζεται στο πάνω μέρος της με κόκκινα γράμματα.

Εχουν προστεθεί επίσης δύο αεροδρόμια από γειτονικές χώρες, την Οχρίδα(ΠΓΔΜ) και την Σόφια(Βουλγαρία) για να ελέγχουμε την εξέλιξη των ψυχρών εισβολών από τα Βόρεια!

LGTS - Thessaloniki/Makedonia-Elev 7m
Απόσταση από meteothes.gr: Ν 13km
Ενημερώθηκε: 21/09/2018 15:20
Διάσπαρτα Nέφη
Διάσπαρτα Nέφη
 Ανεμος από ΔΝΔ
Ανεμος: ΔΝΔ 13 km/h
Θερμοκρασία: 28°C
Σημ. Δρόσου: 10°C
Υγρασία: 32%
Βαρόμετρο: 1017 hPa
Νέφωση: Διάσπαρτα Nέφη
Ορατότητα: 10 km
Λεπτομέρειες Νεφών: Διάσπαρτα Nέφη 762 m
2018/09/21 12:20 LGTS 211220Z 25007KT 9999 FEW025 28/10 Q1017 NOSIG
LGAV - Athens/Elef. Venizelos-Elev 94m
Απόσταση από meteothes.gr: ΝΝΑ 312km
Ενημερώθηκε: 21/09/2018 15:20
Διάσπαρτα Nέφη
Διάσπαρτα Nέφη
 Ανεμος από ΑΒΑ
Ανεμος: ΑΒΑ 31 km/h, Ριπή: 54 km/h
Θερμοκρασία: 26°C
Σημ. Δρόσου: 14°C
Υγρασία: 48%
Βαρόμετρο: 1016 hPa
Νέφωση: Διάσπαρτα Nέφη
Ορατότητα: 10 km
Λεπτομέρειες Νεφών: Διάσπαρτα Nέφη 914 m
2018/09/21 12:20 LGAV 211220Z 06017G29KT 9999 FEW030 26/14 Q1016 NOSIG
 
LGAL - Alexandroupolis-Elev 3m
Απόσταση από meteothes.gr: Α 251km
Ενημερώθηκε: 21/09/2018 15:20
Μερικώς νεφελώδης
Μερικώς νεφελώδης
 Ανεμος από ΒΑ
Ανεμος: ΒΑ 24 km/h
Θερμοκρασία: 27°C
Δείκτη Δυσφορίας: 27°C
Σημ. Δρόσου: 13°C
Υγρασία: 42%
Βαρόμετρο: 1016 hPa
Νέφωση: Μερικώς νεφελώδης
Ορατότητα: 10 km
Λεπτομέρειες Νεφών: Μερικώς νεφελώδης 1067 m
2018/09/21 12:20 LGAL 211220Z 04013KT 9999 SCT035 27/13 Q1016
LGKV - Kavala/Crysoupolis-Elev 5m
Απόσταση από meteothes.gr: ΑΒΑ 144km
Ενημερώθηκε: 21/09/2018 15:20
Αίθριος
Αίθριος
 Ανεμος από ΝΑ
Ανεμος: ΝΑ 13 km/h
Θερμοκρασία: 27°C
Δείκτη Δυσφορίας: 27°C
Σημ. Δρόσου: 13°C
Υγρασία: 42%
Βαρόμετρο: 1016 hPa
Συνθήκες: Αίθριος
Ορατότητα: πάνω από 10 km
2018/09/21 12:20 LGKV 211220Z 14007KT CAVOK 27/13 Q1016
 
LGSK - Skiathos Island-Elev 15m
Απόσταση από meteothes.gr: ΝΝΑ 168km
Ενημερώθηκε: 21/09/2018 14:50
Διάσπαρτα Nέφη
Διάσπαρτα Nέφη
 Ανεμος από ΒΑ
Ανεμος: ΒΑ 11 km/h
Θερμοκρασία: 25°C
Σημ. Δρόσου: 17°C
Υγρασία: 61%
Βαρόμετρο: 1017 hPa
Νέφωση: Διάσπαρτα Nέφη
Ορατότητα: 10 km
Λεπτομέρειες Νεφών: Διάσπαρτα Nέφη 610 m
2018/09/21 11:50 LGSK 211150Z 05006KT 9999 FEW020 25/17 Q1017
LGLM - Limnos Island-Elev 5m
Απόσταση από meteothes.gr: ΑΝΑ 210km
Ενημερώθηκε: 21/09/2018 15:20
Διάσπαρτα Nέφη
Διάσπαρτα Nέφη
 Ανεμος από ΒΒΑ
Ανεμος: ΒΒΑ 22 km/h, Ριπή: 41 km/h
Θερμοκρασία: 26°C
Σημ. Δρόσου: 16°C
Υγρασία: 54%
Βαρόμετρο: 1016 hPa
Νέφωση: Διάσπαρτα Nέφη
Ορατότητα: 10 km
Λεπτομέρειες Νεφών: Διάσπαρτα Nέφη 549 m
2018/09/21 12:20 LGLM 211220Z 03012G22KT 9999 FEW018 26/16 Q1016
 
LGMT - Mitilini Island-Elev 17m
Απόσταση από meteothes.gr: ΑΝΑ 358km
Ενημερώθηκε: 21/09/2018 15:20
Αίθριος
Αίθριος
 Ανεμος από Β
Ανεμος: Β 15 km/h
Θερμοκρασία: 27°C
Δείκτη Δυσφορίας: 28°C
Σημ. Δρόσου: 17°C
Υγρασία: 54%
Βαρόμετρο: 1014 hPa
Συνθήκες: Αίθριος
Ορατότητα: πάνω από 10 km
2018/09/21 12:20 LGMT 211220Z 35008KT 310V010 CAVOK 27/17 Q1014
LGSY - Skiros Island-Elev 15m
Απόσταση από meteothes.gr: ΝΑ 227km
Ενημερώθηκε: 20/09/2018 16:50
ΜΗ Ενημερωμένο METAR!
Διάσπαρτα Nέφη
Διάσπαρτα Nέφη
 Ανεμος από ΒΒΔ
Ανεμος: ΒΒΔ 28 km/h
Θερμοκρασία: 24°C
Σημ. Δρόσου: 15°C
Υγρασία: 57%
Βαρόμετρο: 1017 hPa
Νέφωση: Διάσπαρτα Nέφη
Ορατότητα: 10 km
Λεπτομέρειες Νεφών: Διάσπαρτα Nέφη 610 m
2018/09/20 13:50 LGSY 201350Z 34015KT 9999 FEW020 24/15 Q1017 BLU
 
LGKZ - Kozani-Elev 628m
Απόσταση από meteothes.gr: ΔΝΔ 102km
Ενημερώθηκε: 21/09/2018 14:50
Διάσπαρτα Nέφη
Διάσπαρτα Nέφη
 Ανεμος από άπνοια
Ανεμος: άπνοια
Θερμοκρασία: 27°C
Σημ. Δρόσου: 9°C
Υγρασία: 32%
Βαρόμετρο: 1019 hPa
Νέφωση: Διάσπαρτα Nέφη
Ορατότητα: 10 km
Λεπτομέρειες Νεφών: Διάσπαρτα Nέφη 2134 m
2018/09/21 11:50 LGKZ 211150Z 00000KT 9999 FEW070 27/09 Q1019
LGIO - Ioannina-Elev 476m
Απόσταση από meteothes.gr: ΔΝΔ 209km
Ενημερώθηκε: 21/09/2018 15:20
Αίθριος
Αίθριος
 Ανεμος από μεταβλητός
Ανεμος: μεταβλητός 0 km/h
Θερμοκρασία: 30°C
Σημ. Δρόσου: 12°C
Υγρασία: 33%
Βαρόμετρο: 1017 hPa
Συνθήκες: Αίθριος
Ορατότητα: πάνω από 10 km
2018/09/21 12:20 LGIO 211220Z /////KT CAVOK 30/12 Q1017
 
LGZA - Zakinthos-Elev 3m
Απόσταση από meteothes.gr: ΝΝΔ 367km
Ενημερώθηκε: 21/09/2018 15:20
Διάσπαρτα Nέφη
Διάσπαρτα Nέφη
 Ανεμος από ΝΝΑ
Ανεμος: ΝΝΑ 11 km/h
Θερμοκρασία: 29°C
Δείκτη Δυσφορίας: 29°C
Σημ. Δρόσου: 15°C
Υγρασία: 43%
Βαρόμετρο: 1016 hPa
Νέφωση: Διάσπαρτα Nέφη
Ορατότητα: 10 km
Λεπτομέρειες Νεφών: Διάσπαρτα Nέφη 762 m
2018/09/21 12:20 LGZA 211220Z 16006KT 9999 FEW025 29/15 Q1016
LGKR - Corfu Island-Elev 2m
Απόσταση από meteothes.gr: ΔΝΔ 282km
Ενημερώθηκε: 21/09/2018 15:20
Διάσπαρτα Nέφη
Διάσπαρτα Nέφη
 Ανεμος από Δ
Ανεμος: Δ 13 km/h
Θερμοκρασία: 30°C
Δείκτη Δυσφορίας: 33°C
Σημ. Δρόσου: 22°C
Υγρασία: 62%
Βαρόμετρο: 1016 hPa
Νέφωση: Διάσπαρτα Nέφη
Ορατότητα: 10 km
Λεπτομέρειες Νεφών: Διάσπαρτα Nέφη 762 m
2018/09/21 12:20 LGKR 211220Z 26007KT 9999 FEW025 30/22 Q1016 NOSIG
 
LGSO - Syros Island-Elev 72m
Απόσταση από meteothes.gr: ΝΝΑ 397km
Ενημερώθηκε: 21/09/2018 15:20

 Ανεμος από Β
Ανεμος: Β 26 km/h
Θερμοκρασία: 25°C
Σημ. Δρόσου: 17°C
Υγρασία: 61%
Βαρόμετρο: 1015 hPa
2018/09/21 12:20 LGSO 211220Z AUTO 01014KT //// // ////// 25/17 Q1015 RE//
LGMK - Mikonos Island-Elev 123m
Απόσταση από meteothes.gr: ΝΝΑ 412km
Ενημερώθηκε: 21/09/2018 15:20
Διάσπαρτα Nέφη
Διάσπαρτα Nέφη
 Ανεμος από Β
Ανεμος: Β 37 km/h
Θερμοκρασία: 25°C
Σημ. Δρόσου: 18°C
Υγρασία: 65%
Βαρόμετρο: 1015 hPa
Νέφωση: Διάσπαρτα Nέφη
Ορατότητα: 10 km
Λεπτομέρειες Νεφών: Διάσπαρτα Nέφη 366 m
2018/09/21 12:20 LGMK 211220Z 35020KT 9999 FEW012 25/18 Q1015
 
LGSR - Santorini Island-Elev 40m
Απόσταση από meteothes.gr: ΝΝΑ 520km
Ενημερώθηκε: 21/09/2018 15:20
Αίθριος
Αίθριος
 Ανεμος από Β
Ανεμος: Β 24 km/h
Θερμοκρασία: 26°C
Σημ. Δρόσου: 16°C
Υγρασία: 54%
Βαρόμετρο: 1015 hPa
Συνθήκες: Αίθριος
Ορατότητα: πάνω από 10 km
2018/09/21 12:20 LGSR 211220Z 36013KT CAVOK 26/16 Q1015
LGKL - Kalamata-Elev 8m
Απόσταση από meteothes.gr: Ν 405km
Ενημερώθηκε: 21/09/2018 15:20
Διάσπαρτα Nέφη
Διάσπαρτα Nέφη
 Ανεμος από Ν
Ανεμος: Ν 15 km/h
Θερμοκρασία: 28°C
Δείκτη Δυσφορίας: 28°C
Σημ. Δρόσου: 17°C
Υγρασία: 51%
Βαρόμετρο: 1015 hPa
Νέφωση: Διάσπαρτα Nέφη
Ορατότητα: 10 km
Λεπτομέρειες Νεφών: Διάσπαρτα Nέφη 914 m
2018/09/21 12:20 LGKL 211220Z 17008KT 9999 FEW030 28/17 Q1015
 
LGIR - Iraklion/Crete-Elev 5m
Απόσταση από meteothes.gr: ΝΝΑ 622km
Ενημερώθηκε: 21/09/2018 15:20
Διάσπαρτα Nέφη
Διάσπαρτα Nέφη
 Ανεμος από ΒΔ
Ανεμος: ΒΔ 24 km/h
Θερμοκρασία: 26°C
Σημ. Δρόσου: 21°C
Υγρασία: 74%
Βαρόμετρο: 1015 hPa
Νέφωση: Διάσπαρτα Nέφη
Ορατότητα: 10 km
Λεπτομέρειες Νεφών: Διάσπαρτα Nέφη 762 m
2018/09/21 12:20 LGIR 211220Z 32013KT 9999 FEW025 26/21 Q1015 NOSIG
LGRP - Rhodes-Elev 5m
Απόσταση από meteothes.gr: ΝΑ 649km
Ενημερώθηκε: 21/09/2018 15:20
Διάσπαρτα Nέφη
Διάσπαρτα Nέφη
 Ανεμος από Δ
Ανεμος: Δ 24 km/h
Θερμοκρασία: 29°C
Δείκτη Δυσφορίας: 29°C
Σημ. Δρόσου: 18°C
Υγρασία: 51%
Βαρόμετρο: 1011 hPa
Νέφωση: Διάσπαρτα Nέφη
Ορατότητα: 10 km
Λεπτομέρειες Νεφών: Διάσπαρτα Nέφη 549 m
2018/09/21 12:20 LGRP 211220Z 26013KT 9999 FEW018 29/18 Q1011 NOSIG
 
LWOH - Ohrid/FYROM-Elev 761m
Απόσταση από meteothes.gr: ΔΒΔ 188km
Ενημερώθηκε: 21/09/2018 15:30
Διάσπαρτα Nέφη
Διάσπαρτα Nέφη
 Ανεμος από ΝΝΑ
Ανεμος: ΝΝΑ 9 km/h
Θερμοκρασία: 24°C
Σημ. Δρόσου: 11°C
Υγρασία: 44%
Βαρόμετρο: 1019 hPa
Νέφωση: Διάσπαρτα Nέφη
Ορατότητα: 10 km
Λεπτομέρειες Νεφών: Διάσπαρτα Nέφη 1524 m
2018/09/21 12:30 LWOH 211230Z 15005KT 120V190 9999 FEW050 24/11 Q1019
LBSF - Sofia/Bulgaria-Elev 595m
Απόσταση από meteothes.gr: Β 227km
Ενημερώθηκε: 21/09/2018 15:30
Αίθριος
Αίθριος
 Ανεμος από ΑΝΑ
Ανεμος: ΑΝΑ 15 km/h
Θερμοκρασία: 25°C
Σημ. Δρόσου: 8°C
Υγρασία: 34%
Βαρόμετρο: 1019 hPa
Συνθήκες: Αίθριος
Ορατότητα: πάνω από 10 km
2018/09/21 12:30 LBSF 211230Z 11008KT 090V150 CAVOK 25/08 Q1019 NOSIG

(*) Μερικές αναφορές παρουσιάζουν λιγότερα στοιχεία γιατί οι αρχικές είναι ελλιπείς ή έχουν λάθος μορφοποίηση!